This is the latest recevied weather packets stored in our database for station/object KE8BSM. If no packets are shown the sender has not sent any weather packets the latest 10 day(s).
| Time | Temp. | Humidity | Pressure | Rain* | Wind** | Luminosity | Snow |
|---|---|---|---|---|---|---|---|
| 1777290445 | 9.44° C | 82% | 1015.8 hPa | 0 mm | - | 35 W/m² | - |
| 1777289245 | 9.44° C | 81% | 1016 hPa | 0 mm | - | 21 W/m² | - |
| 1777286846 | 9.44° C | 78% | 1016.3 hPa | 0 mm | - | 3 W/m² | - |
| 1777284447 | 9.44° C | 74% | 1017 hPa | 0 mm | - | 0 W/m² | - |
| 1777279648 | 10° C | 68% | 1018.2 hPa | 0 mm | - | 0 W/m² | - |
| 1777277248 | 10.56° C | 66% | 1017.7 hPa | 0 mm | - | 0 W/m² | - |
| 1777270057 | 11.67° C | 63% | 1018.1 hPa | 0 mm | - | 0 W/m² | - |
| 1777267658 | 12.22° C | 63% | 1018.3 hPa | 0 mm | - | 0 W/m² | - |
| 1777267038 | 12.78° C | 64% | 1018.3 hPa | 0 mm | - | 0 W/m² | - |
| 1777264635 | 13.33° C | 60% | 1018 hPa | 0 mm | - | 0 W/m² | - |
| 1777256838 | 16.11° C | 63% | 1018 hPa | 0 mm | - | 0 W/m² | - |
| 1777255638 | 16.67° C | 59% | 1017.9 hPa | 0 mm | - | 0 W/m² | - |
| 1777255038 | 16.67° C | 59% | 1017.9 hPa | 0 mm | - | 0 W/m² | - |
| 1777249037 | 18.89° C | 52% | 1017.4 hPa | 0 mm | - | 14 W/m² | - |
| 1777236437 | 20° C | 52% | 1017.7 hPa | 0 mm | - | 572 W/m² | - |
| 1777231635 | 18.89° C | 54% | 1018.3 hPa | 0 mm | - | 801 W/m² | - |
| 1777228636 | 17.78° C | 57% | 1018.6 hPa | 0 mm | - | 677 W/m² | - |
| 1777227437 | 17.22° C | 59% | 1018.7 hPa | 0 mm | - | 449 W/m² | - |
| 1777219635 | 12.78° C | 75% | 1020.1 hPa | 0 mm | - | 307 W/m² | - |
| 1777216636 | 10.56° C | 83% | 1020.6 hPa | 0 mm | - | 238 W/m² | - |
| 1777213637 | 9.44° C | 87% | 1020.4 hPa | 0 mm | - | 140 W/m² | - |
| 1777208838 | 7.78° C | 91% | 1020.7 hPa | 0 mm | - | 67 W/m² | - |
| 1777208238 | 7.78° C | 91% | 1020.6 hPa | 0 mm | - | 55 W/m² | - |
| 1777207638 | 7.78° C | 91% | 1020.6 hPa | 0 mm | - | 50 W/m² | - |
| 1777204639 | 7.22° C | 92% | 1020.5 hPa | 0 mm | - | 20 W/m² | - |
* Rain latest hour (hover to see other rain measurements)
** Current wind speed in m/s (hover to see current wind gust speed)